Time;durP1;ratioP1;P1;durP2;ratioP2;P2;SDS_P1;SDS_P2;PMS_P1;PMS_P2;Temp;Humidity;BMP_temperature;BMP_pressure;BME280_temperature;BME280_humidity;BME280_pressure;Samples;Min_cycle;Max_cycle;Signal;HPM_P1;HPM_P2
2020/12/19 00:00:48;;;;;;;10.10;7.17;;;6.60;99.90;;;;;;5073630;28;20251;-62
2020/12/19 00:03:14;;;;;;;9.63;7.50;;;6.70;99.90;;;;;;5073421;28;20220;-61
2020/12/19 00:05:40;;;;;;;10.37;7.93;;;6.70;99.90;;;;;;5072905;28;20229;-61
2020/12/19 00:08:06;;;;;;;9.60;7.23;;;6.70;99.90;;;;;;5072974;28;20660;-61
2020/12/19 00:10:33;;;;;;;11.00;7.60;;;6.80;99.90;;;;;;5073358;28;20250;-61
2020/12/19 00:13:00;;;;;;;9.73;7.53;;;6.70;99.90;;;;;;5073164;28;20212;-61
2020/12/19 00:15:27;;;;;;;11.67;8.20;;;6.70;99.90;;;;;;5073277;28;20583;-61
2020/12/19 00:17:54;;;;;;;11.10;8.53;;;6.60;99.90;;;;;;5073005;28;20299;-61
2020/12/19 00:20:21;;;;;;;11.40;7.40;;;6.50;99.90;;;;;;5073424;28;20461;-62
2020/12/19 00:22:47;;;;;;;11.83;8.27;;;6.40;99.90;;;;;;5073747;28;20262;-61
2020/12/19 00:25:13;;;;;;;10.30;7.73;;;6.40;99.90;;;;;;5073058;28;20232;-61
2020/12/19 00:27:39;;;;;;;11.17;7.43;;;6.40;99.90;;;;;;5072508;28;20225;-61
2020/12/19 00:30:07;;;;;;;9.37;7.13;;;6.50;99.90;;;;;;5073715;28;20264;-60
2020/12/19 00:32:34;;;;;;;9.80;7.40;;;6.50;99.90;;;;;;5073192;28;20254;-61
2020/12/19 00:35:01;;;;;;;12.27;7.77;;;6.60;99.90;;;;;;5072314;28;20233;-61
2020/12/19 00:37:27;;;;;;;9.57;7.73;;;6.80;99.90;;;;;;5072794;28;20208;-61
2020/12/19 00:39:53;;;;;;;9.90;7.37;;;7.00;99.90;;;;;;5072749;28;20212;-61
2020/12/19 00:42:19;;;;;;;10.37;7.57;;;7.10;99.90;;;;;;5072961;28;20259;-61
2020/12/19 00:44:45;;;;;;;11.60;7.50;;;7.30;99.90;;;;;;5072597;28;20576;-61
2020/12/19 00:47:12;;;;;;;11.87;7.57;;;7.40;99.90;;;;;;5072981;28;20235;-61
2020/12/19 00:49:38;;;;;;;13.43;8.40;;;7.50;99.90;;;;;;5072882;28;20208;-62
2020/12/19 00:52:05;;;;;;;10.27;7.13;;;7.50;99.90;;;;;;5073363;28;20204;-61
2020/12/19 00:54:31;;;;;;;10.37;7.70;;;7.50;99.90;;;;;;5072569;28;20672;-60
2020/12/19 00:56:57;;;;;;;11.40;7.20;;;7.40;99.90;;;;;;5073514;28;20201;-61
2020/12/19 00:59:23;;;;;;;9.17;7.10;;;7.20;99.90;;;;;;5073548;28;20201;-61
2020/12/19 01:01:50;;;;;;;9.73;7.27;;;7.20;99.90;;;;;;5073701;28;20205;-61
2020/12/19 01:04:16;;;;;;;9.43;6.80;;;7.10;99.90;;;;;;5072806;28;20209;-61
2020/12/19 01:06:42;;;;;;;9.53;7.07;;;7.20;99.90;;;;;;5072248;28;20571;-60
2020/12/19 01:09:09;;;;;;;10.97;7.23;;;7.40;99.90;;;;;;5072086;28;20208;-61
2020/12/19 01:11:37;;;;;;;9.40;7.70;;;7.60;99.90;;;;;;5072393;28;20623;-60
2020/12/19 01:14:04;;;;;;;18.17;12.00;;;7.70;99.90;;;;;;5071912;28;20205;-64
2020/12/19 01:16:30;;;;;;;17.67;11.07;;;7.70;99.90;;;;;;5072269;28;20267;-61
2020/12/19 01:18:58;;;;;;;8.67;7.00;;;7.80;99.90;;;;;;5071599;28;20284;-60
2020/12/19 01:21:26;;;;;;;8.50;6.97;;;7.90;99.90;;;;;;5072160;28;20201;-62
2020/12/19 01:23:53;;;;;;;10.77;7.23;;;7.90;99.90;;;;;;5071842;28;20234;-62
2020/12/19 01:26:20;;;;;;;8.87;7.00;;;7.90;99.90;;;;;;5072023;28;20703;-61
2020/12/19 01:28:47;;;;;;;8.77;6.87;;;7.90;99.90;;;;;;5071674;28;20212;-61
2020/12/19 01:31:15;;;;;;;10.70;6.83;;;7.90;99.90;;;;;;5071775;28;20212;-61
2020/12/19 01:33:42;;;;;;;9.97;6.87;;;8.00;99.90;;;;;;5071586;28;20208;-62
2020/12/19 01:36:11;;;;;;;8.53;6.67;;;8.00;99.90;;;;;;5071720;28;20631;-61
2020/12/19 01:38:38;;;;;;;9.60;6.47;;;8.00;99.90;;;;;;5071213;28;20212;-61
2020/12/19 01:41:05;;;;;;;9.20;7.07;;;7.90;99.90;;;;;;5071605;28;20278;-61
2020/12/19 01:43:45;;;;;;;14.63;9.33;;;7.90;99.90;;;;;;5071063;28;20208;-61
2020/12/19 01:46:11;;;;;;;18.43;11.17;;;7.90;99.90;;;;;;5071500;28;20254;-61
2020/12/19 01:48:37;;;;;;;16.17;10.47;;;8.00;99.90;;;;;;5071370;28;20205;-61
2020/12/19 01:51:04;;;;;;;15.70;10.73;;;7.90;99.90;;;;;;5071802;28;20200;-61
2020/12/19 01:53:31;;;;;;;13.07;9.13;;;8.00;99.90;;;;;;5070817;28;20673;-61
2020/12/19 01:55:58;;;;;;;15.67;10.83;;;8.00;99.90;;;;;;5071377;28;20734;-61
2020/12/19 01:58:24;;;;;;;11.03;7.53;;;8.00;99.90;;;;;;5071069;28;20594;-62
2020/12/19 02:00:51;;;;;;;17.47;10.10;;;7.90;99.90;;;;;;5071441;28;20258;-61
2020/12/19 02:03:17;;;;;;;15.90;8.70;;;7.80;99.90;;;;;;5071514;28;20201;-62
2020/12/19 02:05:46;;;;;;;22.10;13.57;;;7.70;99.90;;;;;;5070637;28;20247;-62
2020/12/19 02:08:12;;;;;;;10.60;7.93;;;7.70;99.90;;;;;;5071130;28;20204;-61
2020/12/19 02:10:39;;;;;;;13.07;8.37;;;7.70;99.90;;;;;;5071229;28;20282;-61
2020/12/19 02:13:06;;;;;;;30.70;19.20;;;7.70;99.90;;;;;;5071321;28;20213;-60
2020/12/19 02:15:40;;;;;;;26.97;17.10;;;7.60;99.90;;;;;;5070924;28;20644;-61
2020/12/19 02:18:07;;;;;;;11.30;8.27;;;7.60;99.90;;;;;;5071256;28;20269;-61
2020/12/19 02:20:33;;;;;;;7.40;6.33;;;7.50;99.90;;;;;;5071466;28;20201;-62
2020/12/19 02:23:02;;;;;;;8.47;6.10;;;7.30;99.90;;;;;;5071049;28;20201;-62
2020/12/19 02:25:32;;;;;;;9.97;6.43;;;7.20;99.90;;;;;;5070481;28;20282;-61
2020/12/19 02:28:00;;;;;;;8.13;6.10;;;7.00;99.90;;;;;;5071011;28;20232;-61
2020/12/19 02:30:27;;;;;;;7.33;6.27;;;6.90;99.90;;;;;;5071005;28;20208;-60
2020/12/19 02:32:53;;;;;;;9.90;7.00;;;6.90;99.90;;;;;;5070954;28;20205;-61
2020/12/19 02:35:19;;;;;;;11.57;7.93;;;6.90;99.90;;;;;;5070361;28;20270;-61
2020/12/19 02:37:45;;;;;;;10.27;6.17;;;6.80;99.90;;;;;;5070586;28;20391;-61
2020/12/19 02:40:11;;;;;;;10.27;7.13;;;6.90;99.90;;;;;;5070548;28;20685;-61
2020/12/19 02:42:38;;;;;;;10.27;7.30;;;6.90;99.90;;;;;;5070844;28;20212;-61
2020/12/19 02:45:04;;;;;;;8.73;6.43;;;7.00;99.90;;;;;;5070338;28;20229;-60
2020/12/19 02:47:31;;;;;;;8.17;6.63;;;7.00;99.90;;;;;;5070632;28;20229;-61
2020/12/19 02:49:57;;;;;;;10.33;6.67;;;7.00;99.90;;;;;;5072289;28;20212;-59
2020/12/19 02:52:23;;;;;;;8.47;6.63;;;7.00;99.90;;;;;;5074825;28;20209;-61
2020/12/19 02:54:49;;;;;;;9.60;6.57;;;6.80;99.90;;;;;;5074259;28;20229;-61
2020/12/19 02:57:15;;;;;;;10.73;7.40;;;6.80;99.90;;;;;;5074828;28;20207;-59
2020/12/19 02:59:42;;;;;;;14.10;7.43;;;6.60;99.90;;;;;;5074400;28;20212;-61
2020/12/19 03:02:08;;;;;;;10.00;7.93;;;6.50;99.90;;;;;;5074516;28;20200;-60
2020/12/19 03:04:34;;;;;;;9.80;7.57;;;6.50;99.90;;;;;;5074208;28;20200;-61
2020/12/19 03:07:01;;;;;;;12.50;8.27;;;6.40;99.90;;;;;;5080081;22;20229;-59
2020/12/19 03:09:27;;;;;;;11.40;8.43;;;6.40;99.90;;;;;;5054082;28;20213;-59
2020/12/19 03:11:53;;;;;;;10.97;8.10;;;6.30;99.90;;;;;;5054728;28;20201;-59
2020/12/19 03:14:19;;;;;;;9.53;7.27;;;6.20;99.90;;;;;;5054092;28;20205;-59
2020/12/19 03:16:46;;;;;;;9.30;6.93;;;6.20;99.90;;;;;;5054750;28;20255;-59
2020/12/19 03:19:13;;;;;;;9.30;7.33;;;6.10;99.90;;;;;;5054572;28;20854;-59
2020/12/19 03:21:39;;;;;;;10.03;8.30;;;6.00;99.90;;;;;;5054261;28;20209;-59
2020/12/19 03:24:05;;;;;;;8.87;7.27;;;6.00;99.90;;;;;;5054250;28;20271;-59
2020/12/19 03:26:31;;;;;;;9.53;6.67;;;6.00;99.90;;;;;;5054004;28;20634;-59
2020/12/19 03:28:57;;;;;;;10.47;7.33;;;5.90;99.90;;;;;;5053899;28;20224;-59
2020/12/19 03:31:24;;;;;;;8.70;6.27;;;5.90;99.90;;;;;;5054264;28;20488;-58
2020/12/19 03:33:51;;;;;;;10.20;6.87;;;5.80;99.90;;;;;;5054026;28;20227;-58
2020/12/19 03:36:17;;;;;;;11.77;7.20;;;5.60;99.90;;;;;;5054022;28;20597;-59
2020/12/19 03:38:44;;;;;;;10.83;6.90;;;5.60;99.90;;;;;;5053889;28;20201;-59
2020/12/19 03:41:10;;;;;;;13.57;8.73;;;5.60;99.90;;;;;;5054140;28;20201;-58
2020/12/19 03:43:37;;;;;;;9.43;7.10;;;5.60;99.90;;;;;;5053588;28;20232;-58
2020/12/19 03:46:03;;;;;;;11.03;7.40;;;5.60;99.90;;;;;;5053911;28;20221;-59
2020/12/19 03:48:29;;;;;;;10.87;7.73;;;5.60;99.90;;;;;;5053465;28;20220;-59
2020/12/19 03:50:56;;;;;;;9.77;7.30;;;5.60;99.90;;;;;;5053648;28;20209;-59
2020/12/19 03:53:22;;;;;;;9.13;7.13;;;5.50;99.90;;;;;;5053567;28;20210;-58
2020/12/19 03:55:48;;;;;;;9.77;7.13;;;5.60;99.90;;;;;;5053822;28;20234;-59
2020/12/19 03:58:15;;;;;;;9.23;7.30;;;5.50;99.90;;;;;;5053196;28;20214;-59
2020/12/19 04:00:41;;;;;;;9.33;7.40;;;5.50;99.90;;;;;;5053311;28;20216;-59
2020/12/19 04:03:07;;;;;;;10.93;8.23;;;5.50;99.90;;;;;;5053439;28;20232;-59
2020/12/19 04:05:34;;;;;;;10.97;7.47;;;5.40;99.90;;;;;;5052895;28;20743;-58
2020/12/19 04:08:01;;;;;;;10.03;7.60;;;5.30;99.90;;;;;;5052957;28;20222;-59
2020/12/19 04:10:27;;;;;;;9.17;7.50;;;5.20;99.90;;;;;;5053570;28;20213;-59
2020/12/19 04:12:53;;;;;;;10.80;7.70;;;5.20;99.90;;;;;;5053277;28;20202;-59
2020/12/19 04:15:23;;;;;;;9.10;7.47;;;5.20;99.90;;;;;;5052870;28;20650;-58
2020/12/19 04:17:49;;;;;;;11.47;8.20;;;5.00;99.90;;;;;;5052910;28;20201;-59
2020/12/19 04:20:15;;;;;;;11.33;6.67;;;5.00;99.90;;;;;;5053142;28;20237;-58
2020/12/19 04:22:42;;;;;;;9.20;6.40;;;4.90;99.90;;;;;;5053249;28;20213;-57
2020/12/19 04:25:09;;;;;;;9.87;6.63;;;4.80;99.90;;;;;;5052631;28;20669;-57
2020/12/19 04:27:36;;;;;;;8.90;6.40;;;4.70;99.90;;;;;;5052766;28;20766;-57
2020/12/19 04:30:03;;;;;;;9.07;6.53;;;4.60;99.90;;;;;;5052826;28;20233;-57
2020/12/19 04:32:30;;;;;;;8.80;6.60;;;4.50;99.90;;;;;;5052939;28;20213;-57
2020/12/19 04:34:56;;;;;;;10.13;6.53;;;4.50;99.90;;;;;;5052557;28;20210;-57
2020/12/19 04:37:22;;;;;;;8.87;6.73;;;4.50;99.90;;;;;;5053039;28;20224;-57
2020/12/19 04:39:49;;;;;;;11.33;7.03;;;4.50;99.90;;;;;;5052635;28;20205;-57
2020/12/19 04:42:16;;;;;;;9.43;7.23;;;4.40;99.90;;;;;;5052680;28;20213;-57
2020/12/19 04:44:42;;;;;;;9.27;6.70;;;4.30;99.90;;;;;;5052442;28;20221;-57
2020/12/19 04:47:08;;;;;;;9.50;7.37;;;4.30;99.90;;;;;;5052327;28;20228;-57
2020/12/19 04:49:36;;;;;;;9.67;7.00;;;4.30;99.90;;;;;;5052360;28;20604;-57
2020/12/19 04:52:03;;;;;;;9.40;6.27;;;4.30;99.90;;;;;;5052664;28;20210;-57
2020/12/19 04:54:29;;;;;;;8.30;6.67;;;4.30;99.90;;;;;;5052392;28;20210;-57
2020/12/19 04:56:56;;;;;;;9.03;6.83;;;4.20;99.90;;;;;;5052399;28;20641;-57
2020/12/19 04:59:23;;;;;;;8.90;6.20;;;4.20;99.90;;;;;;5052311;28;20205;-56
2020/12/19 05:01:49;;;;;;;9.93;7.30;;;4.10;99.90;;;;;;5052704;28;20214;-57
2020/12/19 05:04:16;;;;;;;8.23;6.73;;;4.10;99.90;;;;;;5052597;28;20210;-57
2020/12/19 05:06:42;;;;;;;10.70;6.80;;;4.10;99.90;;;;;;5052700;28;20229;-57
2020/12/19 05:09:09;;;;;;;12.30;7.17;;;4.10;99.90;;;;;;5052425;28;20626;-57
2020/12/19 05:11:36;;;;;;;7.70;6.40;;;4.10;99.90;;;;;;5052331;28;20247;-58
2020/12/19 05:14:04;;;;;;;8.67;6.77;;;4.10;99.90;;;;;;5052014;28;20233;-57
2020/12/19 05:16:32;;;;;;;11.00;6.60;;;4.10;99.90;;;;;;5053204;28;20225;-56
2020/12/19 05:19:05;;;;;;;9.20;6.90;;;4.00;99.90;;;;;;5052720;28;20205;-56
2020/12/19 05:21:32;;;;;;;7.87;6.20;;;4.00;99.90;;;;;;5052436;28;20237;-57
2020/12/19 05:23:59;;;;;;;9.57;6.50;;;4.10;99.90;;;;;;5051997;28;20205;-56
2020/12/19 05:26:25;;;;;;;9.67;6.57;;;4.10;99.90;;;;;;5051974;28;20225;-57
2020/12/19 05:28:59;;;;;;;8.20;5.67;;;4.20;99.90;;;;;;5052148;28;20209;-57
2020/12/19 05:31:25;;;;;;;10.67;6.30;;;4.10;99.90;;;;;;5052294;28;20247;-57
2020/12/19 05:33:53;;;;;;;9.37;6.37;;;4.10;99.90;;;;;;5052243;28;20213;-57
2020/12/19 05:36:21;;;;;;;9.13;6.23;;;4.00;99.90;;;;;;5051887;28;20222;-57
2020/12/19 05:38:47;;;;;;;7.70;6.10;;;3.90;99.90;;;;;;5051941;28;20201;-57
2020/12/19 05:41:14;;;;;;;9.23;6.03;;;3.90;99.90;;;;;;5051953;28;20206;-57
2020/12/19 05:43:48;;;;;;;7.63;5.90;;;4.00;99.90;;;;;;5051143;28;20691;-56
2020/12/19 05:46:27;;;;;;;9.00;6.63;;;4.00;99.90;;;;;;5051600;28;20320;-56
2020/12/19 05:48:55;;;;;;;8.70;6.40;;;4.10;99.90;;;;;;5051284;28;20209;-57
2020/12/19 05:51:21;;;;;;;7.50;6.07;;;4.00;99.90;;;;;;5051270;28;20205;-57
2020/12/19 05:53:52;;;;;;;7.90;6.20;;;4.10;99.90;;;;;;5051059;28;20212;-56
2020/12/19 05:56:19;;;;;;;7.70;5.93;;;4.10;99.90;;;;;;5051598;28;20237;-57
2020/12/19 05:58:47;;;;;;;8.50;5.93;;;4.10;99.90;;;;;;5051061;28;20209;-57
2020/12/19 06:01:15;;;;;;;8.17;5.87;;;4.10;99.90;;;;;;5051331;28;20209;-58
2020/12/19 06:03:45;;;;;;;7.53;5.87;;;4.10;99.90;;;;;;5050953;28;20205;-57
2020/12/19 06:06:13;;;;;;;7.13;5.60;;;4.10;99.90;;;;;;5050593;28;20725;-56
2020/12/19 06:08:39;;;;;;;7.20;5.80;;;4.10;99.90;;;;;;5050081;28;20241;-57
2020/12/19 06:11:09;;;;;;;8.43;5.30;;;4.10;99.90;;;;;;5050223;28;20601;-57
2020/12/19 06:13:39;;;;;;;7.00;5.57;;;4.10;99.90;;;;;;5049908;28;20220;-57
2020/12/19 06:16:10;;;;;;;7.70;6.07;;;4.10;99.90;;;;;;5050314;28;20236;-57
2020/12/19 06:18:45;;;;;;;8.43;6.20;;;4.10;99.90;;;;;;5050086;28;20201;-57
2020/12/19 06:21:12;;;;;;;8.20;6.03;;;4.10;99.90;;;;;;5050533;28;20324;-57
2020/12/19 06:23:39;;;;;;;8.60;6.50;;;4.10;99.90;;;;;;5050102;28;20470;-57
2020/12/19 06:26:06;;;;;;;7.10;5.97;;;4.10;99.90;;;;;;5050443;28;20225;-57
2020/12/19 06:28:46;;;;;;;8.53;6.60;;;4.10;99.90;;;;;;5050147;28;20209;-57
2020/12/19 06:31:15;;;;;;;6.87;6.07;;;4.10;99.90;;;;;;5050342;28;20216;-57
2020/12/19 06:33:43;;;;;;;7.93;6.13;;;4.20;99.90;;;;;;5049522;28;20221;-57
2020/12/19 06:36:21;;;;;;;7.73;6.27;;;4.20;99.90;;;;;;5050150;28;20755;-57
2020/12/19 06:38:49;;;;;;;7.33;5.83;;;4.20;99.90;;;;;;5049682;28;20676;-57
2020/12/19 06:41:56;;;;;;;7.83;6.03;;;4.30;99.90;;;;;;5049948;28;20643;-56
2020/12/19 06:44:25;;;;;;;9.23;6.43;;;4.40;99.90;;;;;;5049883;28;20205;-57
2020/12/19 06:46:51;;;;;;;7.80;6.20;;;4.40;99.90;;;;;;5050012;28;20222;-57
2020/12/19 06:49:33;;;;;;;7.93;6.23;;;4.40;99.90;;;;;;5049730;28;20259;-57
2020/12/19 06:52:05;;;;;;;9.63;6.20;;;4.50;99.90;;;;;;5049782;28;20205;-57
2020/12/19 06:54:33;;;;;;;8.17;6.97;;;4.50;99.90;;;;;;5049445;28;20209;-56
2020/12/19 06:57:00;;;;;;;8.60;6.60;;;4.50;99.90;;;;;;5049864;28;20249;-57
2020/12/19 06:59:27;;;;;;;10.43;6.73;;;4.50;99.90;;;;;;5049542;28;20209;-57
2020/12/19 07:02:11;;;;;;;8.17;6.30;;;4.40;99.90;;;;;;5049703;28;20212;-58
2020/12/19 07:04:38;;;;;;;8.27;6.17;;;4.40;99.90;;;;;;5049325;28;20206;-57
2020/12/19 07:07:06;;;;;;;6.13;5.53;;;4.40;99.90;;;;;;5031618;28;535070;-57
2020/12/19 07:09:33;;;;;;;7.47;5.77;;;4.30;99.90;;;;;;5050730;28;20213;-57
2020/12/19 07:12:00;;;;;;;8.63;5.57;;;4.40;99.90;;;;;;5050687;28;20225;-57
2020/12/19 07:14:39;;;;;;;9.13;6.27;;;4.50;99.90;;;;;;5050065;28;20205;-57
2020/12/19 07:17:16;;;;;;;8.47;6.07;;;4.50;99.90;;;;;;5050600;28;20764;-57
2020/12/19 07:19:43;;;;;;;7.20;5.63;;;4.60;99.90;;;;;;5050349;28;20577;-58
2020/12/19 07:22:10;;;;;;;9.33;6.20;;;4.70;99.90;;;;;;5050385;28;20662;-57
2020/12/19 07:24:36;;;;;;;8.27;6.07;;;4.70;99.90;;;;;;5050350;28;20214;-57
2020/12/19 07:27:03;;;;;;;8.90;6.67;;;4.60;99.90;;;;;;5050279;28;20759;-58
2020/12/19 07:29:29;;;;;;;8.53;6.63;;;4.50;99.90;;;;;;5050115;28;20214;-57
2020/12/19 07:31:59;;;;;;;9.67;6.40;;;4.50;99.90;;;;;;5050494;28;20640;-57
2020/12/19 07:34:25;;;;;;;8.33;6.40;;;4.40;99.90;;;;;;5050005;28;20221;-57
2020/12/19 07:36:53;;;;;;;10.60;7.47;;;4.50;99.90;;;;;;5053494;28;20222;-57
2020/12/19 07:39:22;;;;;;;9.30;6.67;;;4.50;99.90;;;;;;5053757;28;20209;-57
2020/12/19 07:42:01;;;;;;;7.00;5.67;;;4.50;99.90;;;;;;5054041;28;20212;-57
2020/12/19 07:44:27;;;;;;;6.90;5.70;;;4.40;99.90;;;;;;5053638;28;20255;-57
2020/12/19 07:46:56;;;;;;;8.93;6.17;;;4.40;99.90;;;;;;5053987;28;20275;-57
2020/12/19 07:49:38;;;;;;;8.07;6.37;;;4.30;99.90;;;;;;5053659;28;20209;-58
2020/12/19 07:52:23;;;;;;;8.03;5.80;;;4.40;99.90;;;;;;5053855;28;20726;-57
2020/12/19 07:54:58;;;;;;;6.33;5.50;;;4.40;99.90;;;;;;5053324;28;20205;-57
2020/12/19 07:57:25;;;;;;;7.43;5.70;;;4.50;99.90;;;;;;5054086;28;20574;-57
2020/12/19 07:59:53;;;;;;;7.03;5.57;;;4.60;99.90;;;;;;5053461;28;20209;-57
2020/12/19 08:02:19;;;;;;;8.07;5.80;;;4.80;99.90;;;;;;5053509;28;20301;-57
2020/12/19 08:04:50;;;;;;;7.80;6.17;;;4.90;99.90;;;;;;5053181;28;20579;-58
2020/12/19 08:07:18;;;;;;;6.80;5.47;;;5.00;99.90;;;;;;5053355;28;20492;-58
2020/12/19 08:09:44;;;;;;;10.50;6.23;;;5.10;99.90;;;;;;5053314;28;20241;-57
2020/12/19 08:12:12;;;;;;;6.40;5.30;;;5.20;99.90;;;;;;5053652;28;20583;-57
2020/12/19 08:14:39;;;;;;;7.60;5.60;;;5.30;99.90;;;;;;5053037;28;20213;-57
2020/12/19 08:17:12;;;;;;;6.90;5.53;;;5.30;99.90;;;;;;5053293;28;20233;-58
2020/12/19 08:19:41;;;;;;;6.87;5.33;;;5.40;99.90;;;;;;5053000;28;20212;-57
2020/12/19 08:22:09;;;;;;;7.40;5.37;;;5.50;99.90;;;;;;5053334;28;20206;-58
2020/12/19 08:24:35;;;;;;;6.40;4.60;;;5.60;99.90;;;;;;5052883;28;20213;-58
2020/12/19 08:27:45;;;;;;;6.90;5.17;;;5.70;99.90;;;;;;5053170;28;20245;-57
2020/12/19 08:30:18;;;;;;;7.63;5.70;;;5.80;99.90;;;;;;5053639;28;20284;-58
2020/12/19 08:32:46;;;;;;;6.23;5.23;;;5.90;99.90;;;;;;5053324;28;20267;-58
2020/12/19 08:35:20;;;;;;;5.53;4.63;;;6.10;99.90;;;;;;5052603;28;20226;-58
2020/12/19 08:37:47;;;;;;;5.33;4.27;;;6.20;99.90;;;;;;5052667;28;20259;-57
2020/12/19 08:40:16;;;;;;;5.03;4.50;;;6.30;99.90;;;;;;5052743;28;20210;-57
2020/12/19 08:42:44;;;;;;;7.87;5.47;;;6.40;99.90;;;;;;5052435;28;20209;-58
2020/12/19 08:45:32;;;;;;;5.30;4.30;;;6.50;99.90;;;;;;5052336;28;20228;-57
2020/12/19 08:48:01;;;;;;;7.20;4.60;;;6.50;99.90;;;;;;5051449;28;20704;-58
2020/12/19 08:50:30;;;;;;;5.87;4.47;;;6.50;99.90;;;;;;5053024;28;20235;-57
2020/12/19 08:53:01;;;;;;;6.53;4.67;;;6.60;99.90;;;;;;5051413;28;20450;-56
2020/12/19 08:55:27;;;;;;;5.53;4.60;;;6.70;99.90;;;;;;5062620;28;20467;-57
2020/12/19 08:57:53;;;;;;;5.30;4.10;;;6.90;99.90;;;;;;5072511;28;20212;-60
2020/12/19 09:00:19;;;;;;;5.30;4.10;;;7.10;99.90;;;;;;5073005;28;20213;-57
2020/12/19 09:02:46;;;;;;;4.57;3.93;;;7.40;99.90;;;;;;5072560;28;20205;-58
2020/12/19 09:05:13;;;;;;;4.83;3.87;;;7.60;99.90;;;;;;5073224;28;20298;-59
2020/12/19 09:07:39;;;;;;;4.43;3.70;;;7.80;99.90;;;;;;5071730;28;20232;-58
2020/12/19 09:10:26;;;;;;;5.50;3.90;;;8.00;99.90;;;;;;5072493;28;20227;-57
2020/12/19 09:13:15;;;;;;;6.27;4.30;;;8.20;99.90;;;;;;5069684;28;20209;-63
2020/12/19 09:15:44;;;;;;;5.70;3.67;;;8.30;99.90;;;;;;5031920;28;20227;-62
2020/12/19 09:18:14;;;;;;;4.57;3.37;;;8.70;99.90;;;;;;5031690;28;20240;-57
2020/12/19 09:20:42;;;;;;;4.60;3.60;;;8.80;99.90;;;;;;5032310;28;20217;-59
2020/12/19 09:23:09;;;;;;;4.10;3.70;;;8.80;99.90;;;;;;5031880;28;20202;-59
2020/12/19 09:25:35;;;;;;;4.43;3.50;;;9.00;99.90;;;;;;5031739;28;20233;-58
2020/12/19 09:28:01;;;;;;;6.57;3.73;;;9.10;99.90;;;;;;5031729;28;20230;-58
2020/12/19 09:30:27;;;;;;;4.10;3.50;;;9.20;99.90;;;;;;5031767;28;20268;-57
2020/12/19 09:32:57;;;;;;;4.93;3.33;;;9.40;99.90;;;;;;5031790;28;20221;-59
2020/12/19 09:35:23;;;;;;;4.10;3.37;;;9.50;99.90;;;;;;5031710;28;20222;-59
2020/12/19 09:37:50;;;;;;;5.80;3.67;;;9.60;99.90;;;;;;5031302;28;20209;-56
2020/12/19 09:40:17;;;;;;;6.73;3.70;;;9.70;99.90;;;;;;5031904;28;20210;-59
2020/12/19 09:42:43;;;;;;;5.30;3.40;;;9.80;99.90;;;;;;5031877;28;20213;-59
2020/12/19 09:45:09;;;;;;;5.00;3.20;;;10.10;99.90;;;;;;5031201;28;20226;-58
2020/12/19 09:47:35;;;;;;;6.67;3.80;;;10.10;99.90;;;;;;5031767;28;20233;-59
2020/12/19 09:50:01;;;;;;;7.50;4.30;;;10.20;99.90;;;;;;5031724;28;20721;-59
2020/12/19 09:52:27;;;;;;;5.27;3.97;;;10.30;99.90;;;;;;5031744;28;20203;-58
2020/12/19 09:54:54;;;;;;;5.03;3.93;;;10.30;99.90;;;;;;5031203;28;20210;-58
2020/12/19 09:57:21;;;;;;;5.43;3.63;;;10.30;99.90;;;;;;5031511;28;20264;-58
2020/12/19 09:59:48;;;;;;;4.83;3.70;;;10.30;99.90;;;;;;5031046;28;20206;-57
2020/12/19 10:02:14;;;;;;;5.40;3.77;;;10.20;99.90;;;;;;5031674;28;20210;-58
2020/12/19 10:04:40;;;;;;;4.70;3.57;;;10.10;99.90;;;;;;5031431;28;20400;-58
2020/12/19 10:07:07;;;;;;;5.57;3.07;;;10.10;99.90;;;;;;5031241;28;20295;-58
2020/12/19 10:09:33;;;;;;;4.30;3.40;;;10.00;99.90;;;;;;5031432;28;20213;-57
2020/12/19 10:12:00;;;;;;;4.90;3.40;;;10.10;99.90;;;;;;5031677;28;20296;-58
2020/12/19 10:14:26;;;;;;;3.97;3.37;;;10.20;99.90;;;;;;5031120;28;20624;-57
2020/12/19 10:16:52;;;;;;;6.23;3.50;;;10.30;99.90;;;;;;5031918;28;20248;-58
2020/12/19 10:19:18;;;;;;;5.97;3.30;;;10.30;99.90;;;;;;5031372;28;20209;-58
2020/12/19 10:21:44;;;;;;;6.57;3.57;;;10.30;99.90;;;;;;5031140;28;20209;-57
2020/12/19 10:24:11;;;;;;;5.43;4.10;;;10.20;99.90;;;;;;5031369;28;20210;-58
2020/12/19 10:26:37;;;;;;;4.33;3.07;;;10.10;99.90;;;;;;5031340;28;20226;-57
2020/12/19 10:29:04;;;;;;;4.67;3.47;;;10.00;99.90;;;;;;5031539;28;20221;-58
2020/12/19 10:31:30;;;;;;;5.30;3.40;;;10.00;99.90;;;;;;5031262;28;20206;-58
2020/12/19 10:33:57;;;;;;;3.97;3.37;;;9.90;99.90;;;;;;5031034;28;20206;-58
2020/12/19 10:36:23;;;;;;;6.37;3.73;;;9.90;99.90;;;;;;5030998;28;20234;-58
2020/12/19 10:38:49;;;;;;;4.60;3.53;;;10.00;99.90;;;;;;5030794;28;20220;-59
2020/12/19 10:41:16;;;;;;;5.47;4.03;;;10.00;99.90;;;;;;5031208;28;20264;-58
2020/12/19 10:43:42;;;;;;;6.97;3.97;;;10.10;99.90;;;;;;5030422;28;20674;-59
2020/12/19 10:46:09;;;;;;;5.87;4.07;;;10.10;99.90;;;;;;5031030;28;20630;-59
2020/12/19 10:48:35;;;;;;;6.63;3.90;;;10.20;99.90;;;;;;5030656;28;20319;-58
2020/12/19 10:51:02;;;;;;;5.90;3.80;;;10.30;99.90;;;;;;5031108;28;20206;-59
2020/12/19 10:53:28;;;;;;;5.10;3.77;;;10.40;99.90;;;;;;5030390;28;20701;-59
2020/12/19 10:55:54;;;;;;;4.43;3.87;;;10.50;99.90;;;;;;5030602;28;20230;-61
2020/12/19 10:58:20;;;;;;;6.13;3.80;;;10.60;99.90;;;;;;5030892;28;20221;-59
2020/12/19 11:00:46;;;;;;;5.60;4.07;;;10.60;99.90;;;;;;5031039;28;20214;-59
2020/12/19 11:03:13;;;;;;;4.67;3.60;;;10.60;99.90;;;;;;5030877;28;20233;-59
2020/12/19 11:05:40;;;;;;;4.13;3.50;;;10.60;99.90;;;;;;5030458;28;20296;-58
2020/12/19 11:08:06;;;;;;;6.40;3.53;;;10.60;99.90;;;;;;5030420;28;20325;-58
2020/12/19 11:10:32;;;;;;;6.50;3.67;;;10.60;99.90;;;;;;5031685;28;20218;-60
2020/12/19 11:13:03;;;;;;;5.80;3.63;;;10.70;99.90;;;;;;5034811;28;20210;-58
2020/12/19 11:15:29;;;;;;;5.27;3.63;;;10.80;99.90;;;;;;5034335;28;20257;-58
2020/12/19 11:17:55;;;;;;;4.80;3.47;;;10.90;99.90;;;;;;5033796;28;20679;-57
2020/12/19 11:20:22;;;;;;;5.00;3.60;;;11.00;99.90;;;;;;5034538;28;20202;-58
2020/12/19 11:22:48;;;;;;;5.17;3.23;;;11.10;99.90;;;;;;5034618;28;20206;-59
2020/12/19 11:25:15;;;;;;;4.57;3.60;;;11.20;99.90;;;;;;5033922;28;20234;-59
2020/12/19 11:27:41;;;;;;;4.50;3.70;;;11.30;99.90;;;;;;5034371;28;20234;-58
2020/12/19 11:30:07;;;;;;;4.27;3.47;;;11.50;99.90;;;;;;5034400;28;20214;-58
2020/12/19 11:32:34;;;;;;;5.53;3.90;;;11.50;99.90;;;;;;5034435;28;20210;-57
2020/12/19 11:35:00;;;;;;;4.90;3.77;;;11.60;99.90;;;;;;5034186;28;20212;-66
2020/12/19 11:37:27;;;;;;;4.77;3.37;;;11.80;99.90;;;;;;5035078;28;20199;-63
2020/12/19 11:39:54;;;;;;;4.70;3.73;;;11.80;99.90;;;;;;5034468;28;20210;-60
2020/12/19 11:42:20;;;;;;;5.43;3.80;;;11.90;99.90;;;;;;5034258;28;20313;-58
2020/12/19 11:44:46;;;;;;;5.43;3.60;;;11.90;99.90;;;;;;5034349;28;20210;-58
2020/12/19 11:47:12;;;;;;;5.80;4.00;;;11.90;99.90;;;;;;5034529;28;20226;-62
2020/12/19 11:49:39;;;;;;;4.80;3.63;;;12.00;99.90;;;;;;5034338;28;20214;-61
2020/12/19 11:52:08;;;;;;;5.57;3.63;;;12.10;99.90;;;;;;5034909;28;20268;-59
2020/12/19 11:54:36;;;;;;;5.37;4.17;;;12.20;99.90;;;;;;5034180;28;20662;-58
2020/12/19 11:57:02;;;;;;;5.37;4.00;;;12.20;99.90;;;;;;5034057;28;20706;-59
2020/12/19 11:59:28;;;;;;;6.33;4.10;;;12.30;99.90;;;;;;5033878;28;20202;-59
2020/12/19 12:01:54;;;;;;;9.10;4.43;;;12.50;99.90;;;;;;5034247;28;20210;-59
2020/12/19 12:04:21;;;;;;;5.27;3.90;;;12.50;99.90;;;;;;5033779;28;20206;-59
2020/12/19 12:06:48;;;;;;;5.97;4.20;;;12.50;99.90;;;;;;5033480;28;20718;-59
2020/12/19 12:09:14;;;;;;;4.70;3.70;;;12.60;99.90;;;;;;5034292;28;20210;-59
2020/12/19 12:11:41;;;;;;;6.30;4.20;;;12.80;99.60;;;;;;5033704;28;20570;-59
2020/12/19 12:14:07;;;;;;;5.17;3.67;;;12.90;99.40;;;;;;5033630;28;20214;-59
2020/12/19 12:16:34;;;;;;;7.57;3.73;;;13.10;99.30;;;;;;5033703;28;20234;-59
2020/12/19 12:19:00;;;;;;;6.00;3.67;;;13.20;99.20;;;;;;5033505;28;20634;-59
2020/12/19 12:21:34;;;;;;;5.43;3.90;;;13.30;98.70;;;;;;5033497;28;20207;-59
2020/12/19 12:24:01;;;;;;;5.07;4.00;;;13.50;98.60;;;;;;5033601;28;20251;-59
2020/12/19 12:26:27;;;;;;;8.47;3.87;;;13.50;98.30;;;;;;5033473;28;20234;-59
2020/12/19 12:28:54;;;;;;;4.40;3.73;;;13.50;98.00;;;;;;5031395;28;20256;-59
2020/12/19 12:31:22;;;;;;;13.17;9.90;;;13.50;97.80;;;;;;5047259;28;20209;-60
2020/12/19 12:33:49;;;;;;;7.50;4.23;;;13.50;97.80;;;;;;5052316;28;20208;-58
2020/12/19 12:36:15;;;;;;;5.50;3.63;;;13.60;97.80;;;;;;5052619;28;20243;-59
2020/12/19 12:38:41;;;;;;;5.30;3.70;;;13.70;97.50;;;;;;5052969;28;20210;-58
2020/12/19 12:41:07;;;;;;;6.80;3.80;;;13.70;97.30;;;;;;5052579;28;20202;-58
2020/12/19 12:43:34;;;;;;;5.37;4.10;;;13.80;97.30;;;;;;5052981;28;20205;-60
2020/12/19 12:46:01;;;;;;;7.30;3.73;;;13.90;97.40;;;;;;5050657;28;20232;-57
2020/12/19 12:48:27;;;;;;;9.97;4.23;;;14.00;97.40;;;;;;5051884;28;20240;-57
2020/12/19 12:50:53;;;;;;;4.97;3.63;;;14.10;97.60;;;;;;5052506;28;20582;-58
2020/12/19 12:53:19;;;;;;;5.63;4.23;;;14.30;97.50;;;;;;5050023;28;20213;-59
2020/12/19 12:55:45;;;;;;;7.73;4.83;;;14.50;97.60;;;;;;5052039;28;20222;-58